Time;durP1;ratioP1;P1;durP2;ratioP2;P2;SDS_P1;SDS_P2;PMS_P1;PMS_P2;Temp;Humidity;BMP_temperature;BMP_pressure;BME280_temperature;BME280_humidity;BME280_pressure;Samples;Min_cycle;Max_cycle;Signal;HPM_P1;HPM_P2
2021/03/24 00:01:37;;;;;;;20.35;12.70;;;;;;;6.33;77.18;101639.19;4981945;28;20055;-71
2021/03/24 00:04:04;;;;;;;23.98;14.18;;;;;;;6.49;76.54;101642.28;5016086;28;21037;-72
2021/03/24 00:10:58;;;;;;;25.23;13.60;;;;;;;6.43;76.48;101637.19;5029306;28;20120;-72
2021/03/24 00:13:25;;;;;;;27.27;14.55;;;;;;;6.44;76.86;101638.03;5016751;28;20163;-71
2021/03/24 00:15:52;;;;;;;22.55;14.38;;;;;;;6.35;77.25;101633.94;5011609;28;20067;-71
2021/03/24 00:18:19;;;;;;;22.73;13.95;;;;;;;6.30;77.00;101641.00;5028759;28;20057;-71
2021/03/24 00:20:46;;;;;;;26.10;14.30;;;;;;;6.30;77.71;101636.66;5017347;28;20057;-72
2021/03/24 00:23:14;;;;;;;28.52;13.45;;;;;;;6.40;77.68;101636.44;5010505;28;20067;-72
2021/03/24 00:25:41;;;;;;;23.67;13.63;;;;;;;6.49;76.95;101637.06;5015470;28;20461;-71
2021/03/24 00:28:09;;;;;;;28.75;14.38;;;;;;;6.41;77.27;101635.53;5032209;28;20160;-71
2021/03/24 00:30:40;;;;;;;29.70;14.93;;;;;;;6.18;77.77;101634.34;4997483;28;20053;-71
2021/03/24 00:33:11;;;;;;;29.42;13.88;;;;;;;6.40;77.54;101626.81;4996726;28;20057;-72
2021/03/24 00:35:40;;;;;;;19.25;13.25;;;;;;;6.31;77.08;101632.28;4994887;28;20045;-72
2021/03/24 00:38:08;;;;;;;24.33;14.30;;;;;;;6.14;78.01;101630.09;4988712;28;20053;-72
2021/03/24 00:40:40;;;;;;;24.08;13.95;;;;;;;6.22;77.55;101624.66;5016606;28;20046;-71
2021/03/24 00:43:07;;;;;;;24.35;14.10;;;;;;;6.08;78.49;101618.03;5016391;28;20141;-72
2021/03/24 00:45:35;;;;;;;22.75;13.43;;;;;;;6.18;78.38;101620.41;5015184;28;20057;-71
2021/03/24 00:48:03;;;;;;;25.48;13.63;;;;;;;6.21;77.70;101615.09;4995330;28;20129;-71
2021/03/24 00:50:32;;;;;;;27.48;13.85;;;;;;;6.29;77.26;101613.16;5016039;28;20061;-71
2021/03/24 00:52:59;;;;;;;26.13;14.57;;;;;;;6.06;78.19;101608.50;5006053;28;20049;-69
2021/03/24 00:55:26;;;;;;;22.85;14.25;;;;;;;6.06;78.41;101618.94;5025526;28;20045;-71
2021/03/24 00:57:53;;;;;;;23.55;14.23;;;;;;;5.96;78.29;101605.25;5016689;28;20056;-70
2021/03/24 01:00:24;;;;;;;23.60;15.38;;;;;;;6.01;78.14;101608.59;5008910;28;20065;-70
2021/03/24 01:02:51;;;;;;;22.83;14.15;;;;;;;6.12;77.89;101610.09;5013575;28;20064;-70
2021/03/24 01:05:20;;;;;;;26.25;13.90;;;;;;;6.25;77.49;101608.88;5014820;28;20416;-71
2021/03/24 01:07:47;;;;;;;27.35;15.70;;;;;;;6.14;77.76;101611.78;4998170;28;20054;-70
2021/03/24 01:10:18;;;;;;;23.90;13.88;;;;;;;6.00;78.07;101609.50;5010069;28;20049;-71
2021/03/24 01:12:44;;;;;;;21.98;13.02;;;;;;;6.13;78.10;101614.44;5016269;28;20045;-72
2021/03/24 01:15:11;;;;;;;30.30;13.68;;;;;;;6.15;78.01;101605.66;5012147;28;20079;-71
2021/03/24 01:17:38;;;;;;;26.60;14.18;;;;;;;6.21;77.58;101602.88;5018099;28;20045;-71
2021/03/24 01:20:07;;;;;;;25.58;13.57;;;;;;;6.24;77.24;101604.56;5010987;28;20041;-69
2021/03/24 01:22:42;;;;;;;24.52;13.80;;;;;;;6.22;77.44;101606.38;4999580;28;20073;-70
2021/03/24 01:25:09;;;;;;;25.67;14.25;;;;;;;6.13;77.54;101612.69;4995924;28;20041;-71
2021/03/24 01:27:36;;;;;;;22.58;13.35;;;;;;;5.99;78.27;101606.91;4989978;28;20140;-71
2021/03/24 01:30:04;;;;;;;19.10;12.82;;;;;;;5.84;79.35;101597.66;5032267;28;20050;-69
2021/03/24 01:32:31;;;;;;;24.92;13.98;;;;;;;6.19;78.28;101601.22;5010838;28;20537;-71
2021/03/24 01:34:58;;;;;;;21.20;13.52;;;;;;;6.23;77.77;101595.88;5012584;28;20057;-71
2021/03/24 01:37:25;;;;;;;23.70;12.43;;;;;;;6.35;76.67;101597.31;5029043;28;20057;-70
2021/03/24 01:39:52;;;;;;;26.00;12.98;;;;;;;6.27;77.09;101594.03;4994332;28;20096;-71
2021/03/24 01:42:18;;;;;;;22.33;12.80;;;;;;;6.33;76.50;101601.72;5028571;28;20053;-71
2021/03/24 01:45:15;;;;;;;23.92;12.57;;;;;;;6.18;77.29;101597.75;5015915;28;20487;-70
2021/03/24 01:47:43;;;;;;;25.10;14.00;;;;;;;6.04;77.83;101599.84;5031924;28;20503;-72
2021/03/24 01:50:17;;;;;;;38.08;26.70;;;;;;;6.18;78.02;101594.25;5017280;28;20053;-72
2021/03/24 01:52:43;;;;;;;73.85;52.53;;;;;;;6.12;77.71;101604.84;5011411;28;20053;-70
2021/03/24 01:55:11;;;;;;;78.22;53.28;;;;;;;6.18;77.41;101589.03;5000606;28;20557;-71
2021/03/24 01:57:38;;;;;;;82.57;59.15;;;;;;;6.22;76.82;101596.75;5008732;28;20084;-72
2021/03/24 02:00:13;;;;;;;82.70;58.58;;;;;;;6.11;77.22;101596.16;4997689;28;20057;-72
2021/03/24 02:02:39;;;;;;;89.88;60.92;;;;;;;6.13;77.51;101590.91;5041222;28;20060;-71
2021/03/24 02:05:07;;;;;;;71.55;53.58;;;;;;;5.96;77.66;101597.41;5012778;28;20056;-71
2021/03/24 02:07:40;;;;;;;83.00;59.90;;;;;;;5.96;78.05;101596.56;4994652;28;20065;-70
2021/03/24 02:10:17;;;;;;;83.30;58.75;;;;;;;6.19;77.60;101590.75;5027719;28;20042;-71
2021/03/24 02:12:52;;;;;;;68.50;50.13;;;;;;;6.30;76.29;101592.22;4978185;28;20057;-74
2021/03/24 02:15:26;;;;;;;75.88;52.33;;;;;;;6.06;77.68;101590.19;5013096;28;20132;-70
2021/03/24 02:17:53;;;;;;;74.35;50.78;;;;;;;6.17;77.25;101587.28;4995119;28;20059;-71
2021/03/24 02:20:33;;;;;;;70.35;46.78;;;;;;;6.15;77.84;101589.97;5000251;28;20071;-69
2021/03/24 02:23:18;;;;;;;63.38;41.22;;;;;;;6.14;77.73;101590.00;4991207;28;20453;-71
2021/03/24 02:25:51;;;;;;;54.90;35.53;;;;;;;6.26;76.89;101590.56;5008743;28;20049;-72
2021/03/24 02:28:18;;;;;;;57.03;32.60;;;;;;;6.27;76.75;101592.28;5013812;28;20049;-72
2021/03/24 02:30:46;;;;;;;54.65;30.85;;;;;;;6.18;76.85;101589.03;4998740;28;20041;-71
2021/03/24 02:33:16;;;;;;;49.55;29.35;;;;;;;6.12;77.55;101600.47;5028579;28;20065;-70
2021/03/24 02:35:48;;;;;;;51.63;29.90;;;;;;;6.03;77.87;101593.75;4993890;28;20063;-71
2021/03/24 02:38:17;;;;;;;44.67;26.95;;;;;;;6.15;77.73;101602.19;5011328;28;20055;-72
2021/03/24 02:40:44;;;;;;;52.38;28.67;;;;;;;6.36;76.80;101593.78;4994157;28;20581;-71
2021/03/24 02:43:12;;;;;;;49.85;28.27;;;;;;;6.11;77.56;101600.53;5010509;28;20041;-72
2021/03/24 02:45:43;;;;;;;46.65;27.35;;;;;;;6.01;78.02;101597.28;5014607;28;20045;-72
2021/03/24 02:48:12;;;;;;;44.97;25.20;;;;;;;5.98;78.39;101594.75;4999306;28;20592;-72
2021/03/24 02:50:42;;;;;;;36.33;20.33;;;;;;;5.90;78.63;101592.31;4994104;28;20034;-73
2021/03/24 02:53:09;;;;;;;35.53;20.40;;;;;;;5.99;78.54;101593.84;4994655;28;20409;-72
2021/03/24 02:55:37;;;;;;;37.20;21.40;;;;;;;6.24;77.44;101596.72;5012279;28;20057;-72
2021/03/24 02:58:04;;;;;;;34.00;19.73;;;;;;;6.28;76.92;101586.13;5016506;28;20712;-72
2021/03/24 03:00:32;;;;;;;29.95;18.40;;;;;;;6.15;78.08;101589.09;5018150;28;20067;-72
2021/03/24 03:03:02;;;;;;;35.85;18.17;;;;;;;5.95;78.15;101593.09;5026866;28;20045;-72
2021/03/24 03:05:32;;;;;;;30.35;17.90;;;;;;;5.92;78.68;101592.28;5000691;28;20058;-72
2021/03/24 03:08:18;;;;;;;31.73;18.10;;;;;;;5.90;78.55;101583.56;4989211;28;20046;-72
2021/03/24 03:10:46;;;;;;;28.00;16.75;;;;;;;5.81;78.81;101585.53;4992594;28;20029;-71
2021/03/24 03:13:31;;;;;;;27.60;16.30;;;;;;;5.72;78.98;101590.09;4977716;28;20052;-71
2021/03/24 03:16:05;;;;;;;29.27;16.88;;;;;;;5.90;79.11;101594.03;5011741;28;20071;-70
2021/03/24 03:18:52;;;;;;;27.00;16.10;;;;;;;5.94;79.13;101595.72;5009482;28;20075;-71
2021/03/24 03:21:24;;;;;;;24.60;15.38;;;;;;;5.88;78.94;101598.44;4988270;28;20049;-70
2021/03/24 03:23:51;;;;;;;27.33;14.90;;;;;;;5.88;78.82;101594.06;5014013;28;20054;-70
2021/03/24 03:26:20;;;;;;;24.85;15.15;;;;;;;5.87;79.25;101601.97;5005985;28;20148;-69
2021/03/24 03:28:52;;;;;;;22.73;14.40;;;;;;;6.11;78.51;101600.53;4991180;28;20111;-73
2021/03/24 03:31:22;;;;;;;25.90;14.50;;;;;;;6.20;77.63;101590.69;4996643;28;20056;-71
2021/03/24 03:33:51;;;;;;;27.50;13.27;;;;;;;6.27;77.72;101592.28;5011723;28;20064;-71
2021/03/24 03:36:18;;;;;;;23.83;15.02;;;;;;;6.27;77.60;101594.88;4997933;28;20052;-71
2021/03/24 03:38:46;;;;;;;27.67;14.73;;;;;;;6.39;76.83;101588.47;5010255;28;20033;-71
2021/03/24 03:41:14;;;;;;;28.17;15.10;;;;;;;6.39;76.99;101595.47;5009092;28;20505;-70
2021/03/24 03:43:43;;;;;;;25.63;14.40;;;;;;;6.17;77.64;101597.75;5010055;28;20057;-70
2021/03/24 03:46:13;;;;;;;21.92;13.60;;;;;;;6.08;77.93;101604.94;4997758;28;20050;-71
2021/03/24 03:48:44;;;;;;;23.10;14.23;;;;;;;5.96;78.52;101592.19;5002068;28;20531;-71
2021/03/24 03:51:19;;;;;;;25.75;13.60;;;;;;;6.05;77.96;101598.94;5024081;28;20053;-72
2021/03/24 03:53:53;;;;;;;26.25;14.23;;;;;;;6.14;77.90;101592.63;4992347;28;20081;-70
2021/03/24 03:56:34;;;;;;;24.42;14.88;;;;;;;6.34;77.40;101585.97;5012962;28;20061;-71
2021/03/24 03:59:26;;;;;;;24.33;13.57;;;;;;;6.11;77.99;101582.22;5004627;28;20095;-71
2021/03/24 04:01:56;;;;;;;25.30;15.70;;;;;;;5.91;78.85;101580.09;5021354;28;20041;-70
2021/03/24 04:04:27;;;;;;;22.23;14.43;;;;;;;5.85;79.78;101586.31;5005031;28;20061;-70
2021/03/24 04:07:05;;;;;;;27.40;15.10;;;;;;;5.90;78.48;101586.19;5014208;28;20053;-70
2021/03/24 04:09:35;;;;;;;23.40;14.82;;;;;;;5.95;78.68;101592.22;5013667;28;20053;-70
2021/03/24 04:12:04;;;;;;;23.83;15.30;;;;;;;5.90;78.76;101589.69;5012048;28;20040;-69
2021/03/24 04:14:31;;;;;;;22.40;13.50;;;;;;;6.00;79.00;101588.59;5030931;28;20128;-70
2021/03/24 04:16:58;;;;;;;25.42;14.10;;;;;;;6.26;77.54;101584.44;5012350;28;20062;-69
2021/03/24 04:19:31;;;;;;;28.98;14.63;;;;;;;6.22;77.84;101585.44;4995827;28;20049;-70
2021/03/24 04:22:00;;;;;;;24.67;14.50;;;;;;;6.22;77.52;101585.44;5013036;28;20041;-70
2021/03/24 04:24:31;;;;;;;23.40;14.57;;;;;;;6.10;78.13;101584.00;4998058;28;20728;-71
2021/03/24 04:26:59;;;;;;;23.90;14.80;;;;;;;6.04;78.23;101578.94;5001207;28;20060;-71
2021/03/24 04:29:28;;;;;;;26.45;15.38;;;;;;;6.08;78.19;101576.19;5015708;28;20485;-71
2021/03/24 04:31:58;;;;;;;28.73;14.73;;;;;;;5.90;78.48;101578.34;5013392;28;20073;-70
2021/03/24 04:34:27;;;;;;;28.65;15.48;;;;;;;5.72;79.44;101577.03;5020118;28;20057;-71
2021/03/24 04:37:01;;;;;;;25.63;15.43;;;;;;;5.93;78.75;101581.78;5004382;28;20151;-73
2021/03/24 04:39:51;;;;;;;26.80;16.55;;;;;;;5.86;79.14;101577.59;5005621;28;20059;-74
2021/03/24 04:42:22;;;;;;;23.20;15.35;;;;;;;5.80;79.50;101573.34;5030903;28;20049;-69
2021/03/24 04:44:52;;;;;;;23.83;16.00;;;;;;;5.79;79.18;101582.09;5019129;28;20063;-71
2021/03/24 04:47:33;;;;;;;27.33;15.60;;;;;;;5.73;79.74;101581.38;4983444;28;20060;-69
2021/03/24 04:50:14;;;;;;;29.27;15.57;;;;;;;5.65;80.23;101581.56;4992551;28;20139;-71
2021/03/24 04:52:41;;;;;;;22.88;14.38;;;;;;;5.69;80.37;101577.13;5013600;28;20077;-70
2021/03/24 04:55:10;;;;;;;26.90;14.77;;;;;;;5.59;80.47;101586.94;5032628;28;20079;-70
2021/03/24 04:57:37;;;;;;;27.50;15.40;;;;;;;5.59;80.41;101572.13;5011203;28;20056;-69
2021/03/24 05:00:08;;;;;;;25.08;15.70;;;;;;;5.67;79.77;101573.69;5022398;28;20045;-71
2021/03/24 05:02:35;;;;;;;28.92;15.00;;;;;;;5.83;79.84;101575.91;5009602;28;20050;-70
2021/03/24 05:05:18;;;;;;;26.88;16.10;;;;;;;5.95;78.72;101577.41;5014342;28;20058;-71
2021/03/24 05:08:19;;;;;;;24.80;15.55;;;;;;;5.97;79.13;101578.22;5012562;28;20420;-69
2021/03/24 05:10:45;;;;;;;28.00;15.45;;;;;;;5.78;80.18;101583.00;4969980;28;20037;-71
2021/03/24 05:14:13;;;;;;;26.25;15.32;;;;;;;5.73;81.02;101576.16;5009402;28;20103;-70
2021/03/24 05:16:45;;;;;;;34.42;15.85;;;;;;;5.64;80.50;101573.78;4912618;28;20075;-71
2021/03/24 05:19:23;;;;;;;26.73;14.77;;;;;;;5.70;81.20;101591.91;5015741;28;20053;-71
2021/03/24 05:22:06;;;;;;;28.30;15.48;;;;;;;5.76;80.62;101592.63;5013471;28;20049;-72
2021/03/24 05:24:34;;;;;;;21.50;14.75;;;;;;;5.65;80.92;101584.16;5011246;28;20045;-70
2021/03/24 05:27:15;;;;;;;26.67;15.10;;;;;;;5.64;81.42;101590.28;4999397;28;20129;-72
2021/03/24 05:29:45;;;;;;;22.77;14.70;;;;;;;5.58;81.63;101586.09;4990623;28;20136;-72
2021/03/24 05:32:19;;;;;;;27.60;15.65;;;;;;;5.69;81.24;101592.81;5009226;28;20045;-72
2021/03/24 05:34:49;;;;;;;25.38;14.65;;;;;;;5.83;79.99;101588.97;5009502;28;20053;-71
2021/03/24 05:37:17;;;;;;;27.85;15.45;;;;;;;5.81;80.30;101584.69;5007249;28;20065;-71
2021/03/24 05:39:44;;;;;;;25.13;16.15;;;;;;;5.89;79.89;101581.88;5012577;28;20551;-71
2021/03/24 05:42:26;;;;;;;27.38;15.02;;;;;;;5.99;79.65;101594.72;5013225;28;20037;-72
2021/03/24 05:45:27;;;;;;;25.98;15.77;;;;;;;5.95;79.76;101587.84;5007786;28;20038;-72
2021/03/24 05:48:05;;;;;;;29.60;15.68;;;;;;;6.22;78.37;101582.84;5005084;28;20048;-71
2021/03/24 05:50:57;;;;;;;29.65;15.80;;;;;;;6.24;78.62;101594.97;4997231;28;20061;-73
2021/03/24 05:53:49;;;;;;;28.70;16.27;;;;;;;6.15;78.69;101591.72;4997574;28;20539;-72
2021/03/24 05:56:29;;;;;;;26.83;15.07;;;;;;;6.29;78.05;101595.69;5027444;28;20067;-73
2021/03/24 05:59:30;;;;;;;30.88;17.48;;;;;;;6.32;78.30;101602.63;4993054;28;20486;-73
2021/03/24 06:01:58;;;;;;;27.13;16.88;;;;;;;6.34;78.24;101603.41;5009537;28;20038;-72
2021/03/24 06:04:46;;;;;;;24.33;16.15;;;;;;;6.45;77.25;101604.03;5027974;28;20073;-70
2021/03/24 06:07:49;;;;;;;27.90;17.05;;;;;;;6.45;77.28;101597.94;5028568;28;20060;-72
2021/03/24 06:10:19;;;;;;;32.28;18.80;;;;;;;6.46;77.12;101597.88;5004489;28;20053;-72
2021/03/24 06:13:14;;;;;;;25.42;17.98;;;;;;;6.63;77.03;101601.81;5014035;28;20051;-72
2021/03/24 06:15:59;;;;;;;31.83;20.80;;;;;;;6.70;76.53;101593.75;5008151;28;20053;-70
2021/03/24 06:18:52;;;;;;;35.78;20.63;;;;;;;6.72;76.15;101597.19;5033030;28;20056;-70
2021/03/24 06:21:32;;;;;;;37.63;20.63;;;;;;;6.76;76.10;101596.22;5005039;28;20045;-71
2021/03/24 06:24:16;;;;;;;35.08;21.08;;;;;;;7.01;75.35;101596.34;4999301;28;20045;-75
2021/03/24 06:26:59;;;;;;;36.90;23.10;;;;;;;7.15;74.68;101595.09;5000838;28;20065;-69
2021/03/24 06:30:03;;;;;;;34.85;23.40;;;;;;;7.20;74.56;101604.53;5012434;28;20053;-69
2021/03/24 06:32:48;;;;;;;41.85;23.83;;;;;;;7.22;74.45;101602.75;5028514;28;20049;-71
2021/03/24 06:35:37;;;;;;;45.78;24.30;;;;;;;7.26;74.16;101609.63;5025642;28;20067;-70
2021/03/24 06:38:28;;;;;;;43.58;24.55;;;;;;;7.39;73.51;101614.50;5028955;28;20057;-71
2021/03/24 06:41:33;;;;;;;131.93;26.80;;;;;;;7.40;73.63;101609.19;5025820;28;20053;-72
2021/03/24 06:44:14;;;;;;;50.92;27.80;;;;;;;7.21;74.44;101608.03;5015269;28;20062;-70
2021/03/24 06:46:47;;;;;;;45.72;28.15;;;;;;;6.93;74.70;101611.41;5009830;28;20125;-72
2021/03/24 06:49:35;;;;;;;50.33;28.92;;;;;;;6.92;75.28;101604.47;5011634;28;20045;-70
2021/03/24 06:52:39;;;;;;;51.85;29.42;;;;;;;6.98;75.47;101600.81;4998763;28;20041;-69
2021/03/24 06:55:48;;;;;;;51.55;29.27;;;;;;;7.36;74.14;101605.81;5016148;28;20180;-71
2021/03/24 06:58:35;;;;;;;54.85;30.88;;;;;;;7.18;74.44;101606.34;5022591;28;20057;-71
2021/03/24 07:01:39;;;;;;;50.53;29.52;;;;;;;7.47;74.28;101615.09;5024720;28;20498;-71
2021/03/24 07:04:31;;;;;;;53.78;32.33;;;;;;;7.26;74.69;101614.00;5031231;28;20054;-70
2021/03/24 07:07:16;;;;;;;82.75;32.58;;;;;;;7.65;73.48;101618.91;5028453;28;20067;-71
2021/03/24 07:09:55;;;;;;;73.60;34.35;;;;;;;7.70;73.01;101617.91;5024314;28;20046;-70
2021/03/24 07:12:59;;;;;;;56.75;32.28;;;;;;;7.76;72.68;101622.09;5010495;28;20498;-71
2021/03/24 07:15:31;;;;;;;57.25;33.70;;;;;;;7.50;73.48;101618.50;5028866;28;20049;-71
2021/03/24 07:18:23;;;;;;;53.10;33.85;;;;;;;7.54;73.56;101622.75;5030834;28;20080;-70
2021/03/24 07:21:18;;;;;;;64.53;35.78;;;;;;;7.29;74.52;101619.13;4997926;28;20054;-72
2021/03/24 07:23:55;;;;;;;49.78;31.85;;;;;;;7.55;73.87;101628.84;5037253;28;20049;-71
2021/03/24 07:26:40;;;;;;;52.85;32.60;;;;;;;7.71;73.45;101626.63;5029093;28;20061;-72
2021/03/24 07:29:21;;;;;;;73.65;36.22;;;;;;;7.69;73.63;101631.03;5021021;28;20132;-70
2021/03/24 07:32:07;;;;;;;63.15;34.20;;;;;;;7.56;73.37;101630.53;5012344;28;20056;-70
2021/03/24 07:34:47;;;;;;;52.63;34.28;;;;;;;7.51;74.05;101635.91;4993891;28;20080;-70
2021/03/24 07:37:51;;;;;;;60.92;34.28;;;;;;;7.85;74.06;101640.16;5019710;28;20068;-72
2021/03/24 07:40:28;;;;;;;60.75;34.60;;;;;;;8.25;72.03;101636.25;5028734;28;20053;-70
2021/03/24 07:43:30;;;;;;;65.15;35.50;;;;;;;8.48;70.55;101641.59;5029043;28;20061;-72
2021/03/24 07:46:16;;;;;;;66.00;36.60;;;;;;;8.49;70.31;101635.44;5013674;28;20080;-70
2021/03/24 07:49:03;;;;;;;63.67;36.58;;;;;;;8.54;70.81;101636.13;5015615;28;20057;-71
2021/03/24 07:52:01;;;;;;;68.60;36.42;;;;;;;8.86;69.24;101648.13;5025676;28;20531;-70
2021/03/24 07:54:34;;;;;;;54.50;35.10;;;;;;;8.93;69.22;101646.16;5030637;28;20049;-70
2021/03/24 07:57:16;;;;;;;67.10;37.85;;;;;;;8.87;68.60;101649.88;5010139;28;20068;-70
2021/03/24 08:00:10;;;;;;;63.05;38.38;;;;;;;9.03;68.75;101647.53;5030235;28;20060;-72
2021/03/24 08:02:53;;;;;;;72.65;40.13;;;;;;;9.08;68.10;101652.63;5028367;28;20049;-71
2021/03/24 08:05:43;;;;;;;63.28;37.50;;;;;;;9.25;67.97;101649.41;5008183;28;20072;-73
2021/03/24 08:08:21;;;;;;;64.03;38.05;;;;;;;8.98;67.90;101651.25;5031540;28;20446;-72
2021/03/24 08:10:54;;;;;;;67.57;37.70;;;;;;;9.28;67.30;101655.41;5016709;28;20073;-72
2021/03/24 08:13:42;;;;;;;65.10;38.45;;;;;;;9.54;66.75;101650.91;5008787;28;20060;-72
2021/03/24 08:16:17;;;;;;;73.65;42.00;;;;;;;9.81;64.73;101655.09;5016325;28;20080;-70
2021/03/24 08:18:50;;;;;;;;;;;;;;;10.07;63.92;101648.81;5032378;28;20131;-72
2021/03/24 08:21:48;;;;;;;64.03;37.75;;;;;;;10.05;64.38;101658.56;5015380;28;19925;-72
2021/03/24 08:24:31;;;;;;;63.50;39.78;;;;;;;10.21;63.88;101647.38;5023296;28;20053;-72
2021/03/24 08:27:00;;;;;;;64.40;43.15;;;;;;;10.22;63.26;101659.63;5029044;28;20501;-72
2021/03/24 08:29:45;;;;;;;63.20;39.17;;;;;;;10.28;63.22;101655.00;5014530;28;20506;-71
2021/03/24 08:32:38;;;;;;;62.83;40.28;;;;;;;9.71;65.14;101648.50;5007268;28;20045;-71
2021/03/24 08:35:31;;;;;;;60.45;39.63;;;;;;;10.10;63.98;101661.84;5010896;28;20094;-72
2021/03/24 08:38:12;;;;;;;68.75;41.17;;;;;;;9.67;65.16;101656.56;5011998;28;20075;-72
2021/03/24 08:40:57;;;;;;;71.75;42.47;;;;;;;9.64;64.35;101661.03;5035510;28;20068;-71
2021/03/24 08:43:49;;;;;;;69.87;41.33;;;;;;;9.89;64.34;101654.81;5018016;28;20068;-72
2021/03/24 08:46:33;;;;;;;72.90;43.22;;;;;;;9.66;64.91;101646.97;5035979;28;20709;-71
2021/03/24 08:49:04;;;;;;;62.13;39.78;;;;;;;9.74;65.08;101650.16;4999211;28;20053;-71
2021/03/24 08:51:54;;;;;;;74.25;41.92;;;;;;;9.68;65.07;101653.00;5036347;28;20420;-70
2021/03/24 08:54:24;;;;;;;68.53;40.90;;;;;;;9.66;65.16;101655.72;4995885;28;20053;-72
2021/03/24 08:57:12;;;;;;;67.38;43.42;;;;;;;9.85;62.78;101651.44;5012882;28;20084;-71
2021/03/24 08:59:41;;;;;;;69.13;41.15;;;;;;;9.93;62.44;101659.03;5016651;28;20045;-71
2021/03/24 09:02:37;;;;;;;72.95;43.13;;;;;;;9.95;62.21;101657.22;5019240;28;20071;-71
2021/03/24 09:05:36;;;;;;;70.10;44.97;;;;;;;9.95;61.67;101656.31;5015860;28;20513;-72
2021/03/24 09:08:25;;;;;;;71.75;40.95;;;;;;;10.08;60.75;101655.78;5013655;28;20547;-71
2021/03/24 09:11:01;;;;;;;72.97;42.20;;;;;;;10.25;60.44;101655.13;4997812;28;20050;-71
2021/03/24 09:13:32;;;;;;;72.47;40.47;;;;;;;10.31;59.92;101651.38;5027652;28;20054;-71
2021/03/24 09:16:18;;;;;;;70.60;42.72;;;;;;;10.17;59.75;101644.03;5015958;28;20421;-71
2021/03/24 09:18:50;;;;;;;67.22;41.13;;;;;;;10.09;59.90;101652.25;5034425;28;20060;-73
2021/03/24 09:21:27;;;;;;;62.72;41.88;;;;;;;10.21;58.58;101652.66;5030752;28;20439;-71
2021/03/24 09:24:10;;;;;;;65.28;43.17;;;;;;;10.22;58.98;101641.19;5000620;28;20128;-72
2021/03/24 09:27:32;;;;;;;70.70;41.22;;;;;;;9.96;60.18;101643.13;5016169;28;20042;-70
2021/03/24 09:30:31;;;;;;;85.78;43.22;;;;;;;10.18;58.68;101647.50;4974151;28;20226;-70
2021/03/24 09:33:32;;;;;;;67.93;40.50;;;;;;;9.77;58.85;101650.03;5013696;28;20054;-72
2021/03/24 09:36:05;;;;;;;65.20;40.45;;;;;;;10.36;57.96;101642.41;4991167;28;20133;-71
2021/03/24 09:38:34;;;;;;;70.70;40.08;;;;;;;10.32;58.16;101640.81;5021572;28;20049;-71
2021/03/24 09:41:29;;;;;;;71.50;39.78;;;;;;;10.38;57.00;101640.53;5027879;28;20099;-71
2021/03/24 09:44:01;;;;;;;65.25;40.95;;;;;;;10.64;57.47;101634.19;5023232;28;20058;-70
2021/03/24 09:46:28;;;;;;;73.57;40.22;;;;;;;10.93;56.50;101625.91;5026381;28;20076;-70
2021/03/24 09:48:58;;;;;;;66.00;42.08;;;;;;;10.30;56.95;101620.72;5040025;28;20061;-71
2021/03/24 09:51:28;;;;;;;65.40;41.63;;;;;;;10.28;57.19;101627.84;5001274;28;20053;-72
2021/03/24 09:54:07;;;;;;;67.05;40.28;;;;;;;10.23;57.20;101625.38;5024084;28;20053;-72
2021/03/24 09:56:33;;;;;;;62.92;39.42;;;;;;;10.38;57.51;101622.13;5022051;28;20061;-71
2021/03/24 09:59:27;;;;;;;75.63;45.17;;;;;;;10.19;57.98;101622.94;5030512;28;20034;-76
2021/03/24 10:02:23;;;;;;;72.32;42.78;;;;;;;10.78;56.91;101622.19;5027041;28;20058;-71
2021/03/24 10:05:07;;;;;;;73.73;46.10;;;;;;;10.65;56.71;101620.09;5021854;28;20074;-71
2021/03/24 10:07:40;;;;;;;70.40;42.75;;;;;;;10.56;56.54;101623.13;5035039;28;20472;-70
2021/03/24 10:10:20;;;;;;;71.97;44.65;;;;;;;10.71;55.96;101628.63;5032413;28;20120;-71
2021/03/24 10:12:54;;;;;;;74.47;45.83;;;;;;;10.29;57.22;101626.91;5011646;28;20056;-70
2021/03/24 10:15:21;;;;;;;75.40;46.67;;;;;;;10.46;57.55;101619.16;5010002;28;20146;-71
2021/03/24 10:17:47;;;;;;;70.97;44.00;;;;;;;11.02;56.10;101615.81;5011889;28;20041;-71
2021/03/24 10:20:28;;;;;;;89.60;43.88;;;;;;;10.13;57.88;101616.13;5016905;28;20049;-71
2021/03/24 10:23:27;;;;;;;78.20;41.92;;;;;;;10.38;57.84;101608.94;5011356;28;20394;-72
2021/03/24 10:25:58;;;;;;;72.63;39.60;;;;;;;10.65;57.07;101601.66;5031432;28;20049;-70
2021/03/24 10:28:40;;;;;;;69.75;39.60;;;;;;;10.83;56.36;101601.75;5000365;28;20049;-72
2021/03/24 10:31:14;;;;;;;73.03;40.92;;;;;;;11.12;55.35;101606.59;5013557;28;20060;-72
2021/03/24 10:33:59;;;;;;;65.93;39.87;;;;;;;10.71;56.26;101610.19;4997661;28;20057;-72
2021/03/24 10:36:35;;;;;;;64.32;38.58;;;;;;;10.84;56.88;101596.41;5007844;28;20476;-71
2021/03/24 10:39:09;;;;;;;;;;;;;;;11.01;55.41;101605.34;5017833;28;20148;-71
2021/03/24 10:41:44;;;;;;;71.35;39.47;;;;;;;10.81;56.70;101601.00;5028379;28;19928;-71
2021/03/24 10:44:26;;;;;;;67.20;40.22;;;;;;;10.68;56.72;101607.72;5001823;28;20538;-71
2021/03/24 10:47:15;;;;;;;68.10;40.22;;;;;;;10.74;56.60;101595.13;5006921;28;20061;-71
2021/03/24 10:49:52;;;;;;;68.32;41.72;;;;;;;10.73;56.73;101593.41;5017942;28;20092;-71
2021/03/24 10:52:21;;;;;;;71.65;41.45;;;;;;;10.29;58.52;101596.19;5013974;28;20041;-72
2021/03/24 10:55:01;;;;;;;73.78;42.88;;;;;;;10.41;58.60;101593.97;5012030;28;20057;-72
2021/03/24 10:57:47;;;;;;;70.57;39.65;;;;;;;10.73;57.41;101589.94;5007596;28;20417;-70
2021/03/24 11:00:20;;;;;;;87.05;40.78;;;;;;;10.60;57.44;101585.19;5002747;28;20616;-71
2021/03/24 11:03:05;;;;;;;63.92;39.17;;;;;;;10.93;56.67;101584.63;5028085;28;20058;-71
2021/03/24 11:06:05;;;;;;;61.30;37.40;;;;;;;10.94;56.32;101575.78;5027359;28;20055;-71
2021/03/24 11:08:41;;;;;;;69.07;38.78;;;;;;;11.25;56.56;101583.13;5026407;23;20432;-74
2021/03/24 11:11:15;;;;;;;69.70;37.78;;;;;;;10.71;56.58;101583.88;5007366;28;20096;-75
2021/03/24 11:13:47;;;;;;;61.97;37.55;;;;;;;10.71;57.17;101573.31;5002075;28;20667;-76
2021/03/24 11:16:24;;;;;;;66.50;40.03;;;;;;;11.01;55.81;101576.38;5001437;28;20063;-76
2021/03/24 11:18:54;;;;;;;60.90;37.67;;;;;;;10.76;56.58;101574.84;5009216;28;20068;-74
2021/03/24 11:21:37;;;;;;;61.53;35.95;;;;;;;10.89;56.58;101573.34;4994777;28;20457;-75
2021/03/24 11:24:16;;;;;;;64.75;36.60;;;;;;;11.08;55.81;101578.66;5007371;28;20050;-74
2021/03/24 11:26:55;;;;;;;52.90;29.55;;;;;;;11.20;54.27;101571.97;5002221;28;20054;-75
2021/03/24 11:29:23;;;;;;;49.38;28.95;;;;;;;11.71;54.84;101570.44;4990501;28;20042;-73
2021/03/24 11:32:00;;;;;;;47.45;29.52;;;;;;;12.75;51.44;101572.25;5002242;28;20042;-74
2021/03/24 11:34:33;;;;;;;46.38;27.85;;;;;;;13.08;49.90;101577.50;4995749;28;20058;-74
2021/03/24 11:37:05;;;;;;;41.47;27.83;;;;;;;12.52;50.60;101569.03;4991840;28;20064;-76
2021/03/24 11:39:44;;;;;;;47.70;29.73;;;;;;;12.40;50.70;101567.00;4987516;28;20046;-76
2021/03/24 11:42:14;;;;;;;44.40;28.73;;;;;;;12.53;50.08;101568.09;4999069;28;20054;-76
2021/03/24 11:44:43;;;;;;;46.63;30.05;;;;;;;12.52;49.83;101561.09;5001725;28;20058;-75
2021/03/24 11:47:31;;;;;;;51.63;30.00;;;;;;;12.19;51.13;101557.53;5001379;28;20161;-76
2021/03/24 11:50:09;;;;;;;50.55;31.85;;;;;;;12.06;51.30;101560.78;5002377;28;20049;-75
2021/03/24 11:52:56;;;;;;;48.17;32.00;;;;;;;11.81;52.66;101555.00;4983536;28;20042;-76
2021/03/24 11:55:59;;;;;;;60.05;31.27;;;;;;;12.05;51.51;101551.16;5012641;28;20077;-74
2021/03/24 11:58:48;;;;;;;58.58;33.70;;;;;;;11.68;52.83;101552.09;5003704;28;20058;-74
2021/03/24 12:01:21;;;;;;;54.00;34.80;;;;;;;11.76;52.81;101538.56;5001533;28;20060;-74
2021/03/24 12:04:07;;;;;;;56.80;33.67;;;;;;;11.78;52.57;101544.59;4983025;28;20541;-75
2021/03/24 12:06:43;;;;;;;54.78;34.17;;;;;;;11.58;53.56;101542.94;5010479;28;20123;-75
2021/03/24 12:09:31;;;;;;;56.53;36.00;;;;;;;11.49;54.03;101530.19;4996714;28;20044;-74